sensor_id;sensor_type;location;lat;lon;timestamp;pressure;altitude;pressure_sealevel;temperature
9985;BMP180;16737;50.932;6.780;2022-12-24T00:00:10;99396.00;;;15.40
9985;BMP180;16737;50.932;6.780;2022-12-24T00:02:37;99397.00;;;15.40
9985;BMP180;16737;50.932;6.780;2022-12-24T00:05:05;99388.00;;;15.40
9985;BMP180;16737;50.932;6.780;2022-12-24T00:07:32;99396.00;;;15.40
9985;BMP180;16737;50.932;6.780;2022-12-24T00:09:59;99396.00;;;15.40
9985;BMP180;16737;50.932;6.780;2022-12-24T00:12:26;99382.00;;;15.40
9985;BMP180;16737;50.932;6.780;2022-12-24T00:14:53;99406.00;;;15.30
9985;BMP180;16737;50.932;6.780;2022-12-24T00:17:22;99403.00;;;15.30
9985;BMP180;16737;50.932;6.780;2022-12-24T00:19:48;99417.00;;;15.30
9985;BMP180;16737;50.932;6.780;2022-12-24T00:22:15;99411.00;;;15.30
9985;BMP180;16737;50.932;6.780;2022-12-24T00:24:42;99403.00;;;15.30
9985;BMP180;16737;50.932;6.780;2022-12-24T00:27:09;99410.00;;;15.30
9985;BMP180;16737;50.932;6.780;2022-12-24T00:29:36;99416.00;;;15.20
9985;BMP180;16737;50.932;6.780;2022-12-24T00:32:03;99411.00;;;15.30
9985;BMP180;16737;50.932;6.780;2022-12-24T00:34:36;99422.00;;;15.30
9985;BMP180;16737;50.932;6.780;2022-12-24T00:37:03;99412.00;;;15.30
9985;BMP180;16737;50.932;6.780;2022-12-24T00:39:30;99413.00;;;15.30
9985;BMP180;16737;50.932;6.780;2022-12-24T00:41:57;99400.00;;;15.20
9985;BMP180;16737;50.932;6.780;2022-12-24T00:44:24;99399.00;;;15.30
9985;BMP180;16737;50.932;6.780;2022-12-24T00:46:51;99409.00;;;15.30
9985;BMP180;16737;50.932;6.780;2022-12-24T00:49:18;99427.00;;;15.30
9985;BMP180;16737;50.932;6.780;2022-12-24T00:51:47;99428.00;;;15.30
9985;BMP180;16737;50.932;6.780;2022-12-24T00:54:13;99422.00;;;15.30
9985;BMP180;16737;50.932;6.780;2022-12-24T00:56:40;99437.00;;;15.40
9985;BMP180;16737;50.932;6.780;2022-12-24T00:59:07;99433.00;;;15.40
9985;BMP180;16737;50.932;6.780;2022-12-24T01:01:34;99431.00;;;15.40
9985;BMP180;16737;50.932;6.780;2022-12-24T01:04:01;99446.00;;;15.40
9985;BMP180;16737;50.932;6.780;2022-12-24T01:06:47;99446.00;;;15.40
9985;BMP180;16737;50.932;6.780;2022-12-24T01:09:14;99443.00;;;15.50
9985;BMP180;16737;50.932;6.780;2022-12-24T01:11:41;99441.00;;;15.50
9985;BMP180;16737;50.932;6.780;2022-12-24T01:14:08;99438.00;;;15.50
9985;BMP180;16737;50.932;6.780;2022-12-24T01:16:34;99464.00;;;15.50
9985;BMP180;16737;50.932;6.780;2022-12-24T01:19:01;99464.00;;;15.50
9985;BMP180;16737;50.932;6.780;2022-12-24T01:21:28;99467.00;;;15.60
9985;BMP180;16737;50.932;6.780;2022-12-24T01:23:56;99469.00;;;15.60
9985;BMP180;16737;50.932;6.780;2022-12-24T01:26:23;99484.00;;;15.60
9985;BMP180;16737;50.932;6.780;2022-12-24T01:28:50;99463.00;;;15.60
9985;BMP180;16737;50.932;6.780;2022-12-24T01:31:18;99477.00;;;15.60
9985;BMP180;16737;50.932;6.780;2022-12-24T01:33:48;99457.00;;;15.60
9985;BMP180;16737;50.932;6.780;2022-12-24T01:36:15;99476.00;;;15.60
9985;BMP180;16737;50.932;6.780;2022-12-24T01:38:42;99494.00;;;15.50
9985;BMP180;16737;50.932;6.780;2022-12-24T01:41:16;99494.00;;;15.50
9985;BMP180;16737;50.932;6.780;2022-12-24T01:44:22;99437.00;;;15.40
9985;BMP180;16737;50.932;6.780;2022-12-24T01:46:55;99502.00;;;15.50
9985;BMP180;16737;50.932;6.780;2022-12-24T01:49:25;99497.00;;;15.50
9985;BMP180;16737;50.932;6.780;2022-12-24T01:51:57;99499.00;;;15.40
9985;BMP180;16737;50.932;6.780;2022-12-24T01:54:31;99502.00;;;15.40
9985;BMP180;16737;50.932;6.780;2022-12-24T01:57:05;99501.00;;;15.40
9985;BMP180;16737;50.932;6.780;2022-12-24T01:59:34;99461.00;;;15.40
9985;BMP180;16737;50.932;6.780;2022-12-24T02:02:02;99509.00;;;15.40
9985;BMP180;16737;50.932;6.780;2022-12-24T02:04:36;99522.00;;;15.40
9985;BMP180;16737;50.932;6.780;2022-12-24T02:07:06;99512.00;;;15.40
9985;BMP180;16737;50.932;6.780;2022-12-24T02:09:34;99513.00;;;15.30
9985;BMP180;16737;50.932;6.780;2022-12-24T02:12:05;99527.00;;;15.30
9985;BMP180;16737;50.932;6.780;2022-12-24T02:14:33;99531.00;;;15.30
9985;BMP180;16737;50.932;6.780;2022-12-24T02:17:13;99527.00;;;15.30
9985;BMP180;16737;50.932;6.780;2022-12-24T02:23:41;99543.00;;;15.20
9985;BMP180;16737;50.932;6.780;2022-12-24T02:26:30;99557.00;;;15.00
9985;BMP180;16737;50.932;6.780;2022-12-24T02:29:31;99549.00;;;15.20
9985;BMP180;16737;50.932;6.780;2022-12-24T02:32:11;99550.00;;;15.20
9985;BMP180;16737;50.932;6.780;2022-12-24T02:34:46;99485.00;;;15.20
9985;BMP180;16737;50.932;6.780;2022-12-24T02:37:22;99568.00;;;15.20
9985;BMP180;16737;50.932;6.780;2022-12-24T02:39:55;99560.00;;;15.20
9985;BMP180;16737;50.932;6.780;2022-12-24T02:42:28;99565.00;;;15.20
9985;BMP180;16737;50.932;6.780;2022-12-24T02:45:03;99569.00;;;15.30
9985;BMP180;16737;50.932;6.780;2022-12-24T02:47:33;99571.00;;;15.30
9985;BMP180;16737;50.932;6.780;2022-12-24T02:50:02;99576.00;;;15.30
9985;BMP180;16737;50.932;6.780;2022-12-24T02:52:33;99580.00;;;15.30
9985;BMP180;16737;50.932;6.780;2022-12-24T02:55:07;99584.00;;;15.40
9985;BMP180;16737;50.932;6.780;2022-12-24T02:57:53;99587.00;;;15.30
9985;BMP180;16737;50.932;6.780;2022-12-24T03:00:24;99576.00;;;15.40
9985;BMP180;16737;50.932;6.780;2022-12-24T03:03:18;99574.00;;;15.40
9985;BMP180;16737;50.932;6.780;2022-12-24T03:05:50;99582.00;;;15.30
9985;BMP180;16737;50.932;6.780;2022-12-24T03:08:29;99574.00;;;15.40
9985;BMP180;16737;50.932;6.780;2022-12-24T03:11:03;99573.00;;;15.40
9985;BMP180;16737;50.932;6.780;2022-12-24T03:13:32;99578.00;;;15.40
9985;BMP180;16737;50.932;6.780;2022-12-24T03:16:02;99581.00;;;15.40
9985;BMP180;16737;50.932;6.780;2022-12-24T03:18:31;99580.00;;;15.40
9985;BMP180;16737;50.932;6.780;2022-12-24T03:21:05;99579.00;;;15.40
9985;BMP180;16737;50.932;6.780;2022-12-24T03:23:35;99587.00;;;15.40
9985;BMP180;16737;50.932;6.780;2022-12-24T03:26:08;99594.00;;;15.40
9985;BMP180;16737;50.932;6.780;2022-12-24T03:28:38;99598.00;;;15.40
9985;BMP180;16737;50.932;6.780;2022-12-24T03:31:07;99598.00;;;15.40
9985;BMP180;16737;50.932;6.780;2022-12-24T03:33:36;99604.00;;;15.30
9985;BMP180;16737;50.932;6.780;2022-12-24T03:36:06;99619.00;;;15.30
9985;BMP180;16737;50.932;6.780;2022-12-24T03:38:33;99615.00;;;15.30
9985;BMP180;16737;50.932;6.780;2022-12-24T03:41:02;99611.00;;;15.30
9985;BMP180;16737;50.932;6.780;2022-12-24T03:43:30;99612.00;;;15.30
9985;BMP180;16737;50.932;6.780;2022-12-24T03:45:57;99590.00;;;15.20
9985;BMP180;16737;50.932;6.780;2022-12-24T03:48:24;99618.00;;;15.20
9985;BMP180;16737;50.932;6.780;2022-12-24T03:50:52;99598.00;;;15.10
9985;BMP180;16737;50.932;6.780;2022-12-24T03:53:19;99610.00;;;15.10
9985;BMP180;16737;50.932;6.780;2022-12-24T03:55:46;99594.00;;;15.00
9985;BMP180;16737;50.932;6.780;2022-12-24T03:58:13;99605.00;;;14.90
9985;BMP180;16737;50.932;6.780;2022-12-24T04:00:40;99612.00;;;14.90
9985;BMP180;16737;50.932;6.780;2022-12-24T04:03:07;99619.00;;;14.90
9985;BMP180;16737;50.932;6.780;2022-12-24T04:05:33;99606.00;;;14.90
9985;BMP180;16737;50.932;6.780;2022-12-24T04:08:02;99613.00;;;14.80
9985;BMP180;16737;50.932;6.780;2022-12-24T04:10:29;99623.00;;;14.80
9985;BMP180;16737;50.932;6.780;2022-12-24T04:12:55;99627.00;;;14.70
9985;BMP180;16737;50.932;6.780;2022-12-24T04:15:22;99611.00;;;14.70
9985;BMP180;16737;50.932;6.780;2022-12-24T04:17:49;99619.00;;;14.60
9985;BMP180;16737;50.932;6.780;2022-12-24T04:20:16;99633.00;;;14.60
9985;BMP180;16737;50.932;6.780;2022-12-24T04:22:43;99608.00;;;14.60
9985;BMP180;16737;50.932;6.780;2022-12-24T04:25:11;99617.00;;;14.50
9985;BMP180;16737;50.932;6.780;2022-12-24T04:27:38;99613.00;;;14.50
9985;BMP180;16737;50.932;6.780;2022-12-24T04:30:07;99629.00;;;14.40
9985;BMP180;16737;50.932;6.780;2022-12-24T04:32:34;99628.00;;;14.40
9985;BMP180;16737;50.932;6.780;2022-12-24T04:35:01;99643.00;;;14.40
9985;BMP180;16737;50.932;6.780;2022-12-24T04:37:28;99574.00;;;14.30
9985;BMP180;16737;50.932;6.780;2022-12-24T04:39:55;99635.00;;;14.30
9985;BMP180;16737;50.932;6.780;2022-12-24T04:42:23;99650.00;;;14.30
9985;BMP180;16737;50.932;6.780;2022-12-24T04:44:50;99652.00;;;14.30
9985;BMP180;16737;50.932;6.780;2022-12-24T04:47:17;99646.00;;;14.30
9985;BMP180;16737;50.932;6.780;2022-12-24T04:49:43;99650.00;;;14.30
9985;BMP180;16737;50.932;6.780;2022-12-24T04:52:10;99660.00;;;14.30
9985;BMP180;16737;50.932;6.780;2022-12-24T04:54:37;99643.00;;;14.30
9985;BMP180;16737;50.932;6.780;2022-12-24T04:57:04;99640.00;;;14.30
9985;BMP180;16737;50.932;6.780;2022-12-24T04:59:32;99645.00;;;14.30
9985;BMP180;16737;50.932;6.780;2022-12-24T05:01:59;99646.00;;;14.30
9985;BMP180;16737;50.932;6.780;2022-12-24T05:04:26;99642.00;;;14.30
9985;BMP180;16737;50.932;6.780;2022-12-24T05:06:53;99660.00;;;14.30
9985;BMP180;16737;50.932;6.780;2022-12-24T05:09:20;99669.00;;;14.30
9985;BMP180;16737;50.932;6.780;2022-12-24T05:11:46;99662.00;;;14.30
9985;BMP180;16737;50.932;6.780;2022-12-24T05:14:13;99658.00;;;14.30
9985;BMP180;16737;50.932;6.780;2022-12-24T05:16:42;99664.00;;;14.30
9985;BMP180;16737;50.932;6.780;2022-12-24T05:19:09;99663.00;;;14.40
9985;BMP180;16737;50.932;6.780;2022-12-24T05:21:36;99681.00;;;14.40
9985;BMP180;16737;50.932;6.780;2022-12-24T05:24:03;99681.00;;;14.40
9985;BMP180;16737;50.932;6.780;2022-12-24T05:26:50;99631.00;;;14.30
9985;BMP180;16737;50.932;6.780;2022-12-24T05:29:17;99672.00;;;14.30
9985;BMP180;16737;50.932;6.780;2022-12-24T05:31:46;99674.00;;;14.30
9985;BMP180;16737;50.932;6.780;2022-12-24T05:34:15;99673.00;;;14.30
9985;BMP180;16737;50.932;6.780;2022-12-24T05:36:43;99673.00;;;14.30
9985;BMP180;16737;50.932;6.780;2022-12-24T05:39:13;99674.00;;;14.30
9985;BMP180;16737;50.932;6.780;2022-12-24T05:41:40;99687.00;;;14.30
9985;BMP180;16737;50.932;6.780;2022-12-24T05:44:07;99682.00;;;14.30
9985;BMP180;16737;50.932;6.780;2022-12-24T05:46:34;99696.00;;;14.30
9985;BMP180;16737;50.932;6.780;2022-12-24T05:49:02;99696.00;;;14.40
9985;BMP180;16737;50.932;6.780;2022-12-24T05:51:29;99705.00;;;14.40
9985;BMP180;16737;50.932;6.780;2022-12-24T05:53:56;99695.00;;;14.10
9985;BMP180;16737;50.932;6.780;2022-12-24T05:56:24;99697.00;;;14.30
9985;BMP180;16737;50.932;6.780;2022-12-24T05:58:52;99707.00;;;14.30
9985;BMP180;16737;50.932;6.780;2022-12-24T06:01:20;99699.00;;;14.40
9985;BMP180;16737;50.932;6.780;2022-12-24T06:03:47;99702.00;;;14.40
9985;BMP180;16737;50.932;6.780;2022-12-24T06:06:19;99706.00;;;14.40
9985;BMP180;16737;50.932;6.780;2022-12-24T06:08:49;99687.00;;;14.40
9985;BMP180;16737;50.932;6.780;2022-12-24T06:11:19;99708.00;;;14.40
9985;BMP180;16737;50.932;6.780;2022-12-24T06:13:47;99715.00;;;14.40
9985;BMP180;16737;50.932;6.780;2022-12-24T06:16:16;99714.00;;;14.40
9985;BMP180;16737;50.932;6.780;2022-12-24T06:18:44;99701.00;;;14.50
9985;BMP180;16737;50.932;6.780;2022-12-24T06:21:12;99722.00;;;14.50
9985;BMP180;16737;50.932;6.780;2022-12-24T06:23:43;99721.00;;;14.50
9985;BMP180;16737;50.932;6.780;2022-12-24T06:26:13;99716.00;;;14.50
9985;BMP180;16737;50.932;6.780;2022-12-24T06:28:43;99724.00;;;14.50
9985;BMP180;16737;50.932;6.780;2022-12-24T06:31:14;99724.00;;;14.50
9985;BMP180;16737;50.932;6.780;2022-12-24T06:33:41;99723.00;;;14.60
9985;BMP180;16737;50.932;6.780;2022-12-24T06:36:13;99729.00;;;14.60
9985;BMP180;16737;50.932;6.780;2022-12-24T06:38:41;99684.00;;;14.60
9985;BMP180;16737;50.932;6.780;2022-12-24T06:41:08;99742.00;;;14.60
9985;BMP180;16737;50.932;6.780;2022-12-24T06:43:35;99738.00;;;14.60
9985;BMP180;16737;50.932;6.780;2022-12-24T06:46:03;99746.00;;;14.60
9985;BMP180;16737;50.932;6.780;2022-12-24T06:48:30;99749.00;;;14.60
9985;BMP180;16737;50.932;6.780;2022-12-24T06:50:57;99761.00;;;14.70
9985;BMP180;16737;50.932;6.780;2022-12-24T06:53:24;99748.00;;;14.70
9985;BMP180;16737;50.932;6.780;2022-12-24T06:55:52;99754.00;;;14.70
9985;BMP180;16737;50.932;6.780;2022-12-24T06:58:19;99759.00;;;14.70
9985;BMP180;16737;50.932;6.780;2022-12-24T07:00:47;99768.00;;;14.70
9985;BMP180;16737;50.932;6.780;2022-12-24T07:03:14;99760.00;;;14.70
9985;BMP180;16737;50.932;6.780;2022-12-24T07:05:41;99758.00;;;14.70
9985;BMP180;16737;50.932;6.780;2022-12-24T07:08:08;99766.00;;;14.70
9985;BMP180;16737;50.932;6.780;2022-12-24T07:10:35;99770.00;;;14.80
9985;BMP180;16737;50.932;6.780;2022-12-24T07:13:03;99725.00;;;14.80
9985;BMP180;16737;50.932;6.780;2022-12-24T07:15:30;99771.00;;;14.80
9985;BMP180;16737;50.932;6.780;2022-12-24T07:17:57;99778.00;;;14.80
9985;BMP180;16737;50.932;6.780;2022-12-24T07:20:23;99773.00;;;14.80
9985;BMP180;16737;50.932;6.780;2022-12-24T07:22:50;99785.00;;;14.80
9985;BMP180;16737;50.932;6.780;2022-12-24T07:25:17;99781.00;;;14.80
9985;BMP180;16737;50.932;6.780;2022-12-24T07:27:44;99800.00;;;14.80
9985;BMP180;16737;50.932;6.780;2022-12-24T07:30:13;99787.00;;;14.80
9985;BMP180;16737;50.932;6.780;2022-12-24T07:32:40;99783.00;;;14.80
9985;BMP180;16737;50.932;6.780;2022-12-24T07:35:08;99796.00;;;14.90
9985;BMP180;16737;50.932;6.780;2022-12-24T07:37:35;99803.00;;;14.90
9985;BMP180;16737;50.932;6.780;2022-12-24T07:40:03;99789.00;;;14.90
9985;BMP180;16737;50.932;6.780;2022-12-24T07:42:32;99809.00;;;14.90
9985;BMP180;16737;50.932;6.780;2022-12-24T07:44:59;99817.00;;;14.90
9985;BMP180;16737;50.932;6.780;2022-12-24T07:47:28;99820.00;;;14.90
9985;BMP180;16737;50.932;6.780;2022-12-24T07:49:54;99821.00;;;14.90
9985;BMP180;16737;50.932;6.780;2022-12-24T07:52:21;99821.00;;;14.90
9985;BMP180;16737;50.932;6.780;2022-12-24T07:54:48;99790.00;;;14.90
9985;BMP180;16737;50.932;6.780;2022-12-24T07:57:15;99830.00;;;14.60
9985;BMP180;16737;50.932;6.780;2022-12-24T07:59:42;99829.00;;;15.00
9985;BMP180;16737;50.932;6.780;2022-12-24T08:02:10;99833.00;;;15.00
9985;BMP180;16737;50.932;6.780;2022-12-24T08:04:38;99836.00;;;15.00
9985;BMP180;16737;50.932;6.780;2022-12-24T08:07:06;99847.00;;;15.00
9985;BMP180;16737;50.932;6.780;2022-12-24T08:09:34;99845.00;;;15.00
9985;BMP180;16737;50.932;6.780;2022-12-24T08:12:02;99840.00;;;15.00
9985;BMP180;16737;50.932;6.780;2022-12-24T08:14:30;99865.00;;;15.00
9985;BMP180;16737;50.932;6.780;2022-12-24T08:16:57;99846.00;;;15.00
9985;BMP180;16737;50.932;6.780;2022-12-24T08:19:24;99854.00;;;15.10
9985;BMP180;16737;50.932;6.780;2022-12-24T08:21:52;99858.00;;;15.10
9985;BMP180;16737;50.932;6.780;2022-12-24T08:24:19;99876.00;;;15.10
9985;BMP180;16737;50.932;6.780;2022-12-24T08:26:46;99857.00;;;15.10
9985;BMP180;16737;50.932;6.780;2022-12-24T08:29:13;99872.00;;;15.20
9985;BMP180;16737;50.932;6.780;2022-12-24T08:31:40;99866.00;;;15.20
9985;BMP180;16737;50.932;6.780;2022-12-24T08:34:09;99871.00;;;15.20
9985;BMP180;16737;50.932;6.780;2022-12-24T08:36:36;99880.00;;;15.20
9985;BMP180;16737;50.932;6.780;2022-12-24T08:39:04;99872.00;;;15.20
9985;BMP180;16737;50.932;6.780;2022-12-24T08:41:34;99889.00;;;15.20
9985;BMP180;16737;50.932;6.780;2022-12-24T08:44:01;99885.00;;;15.20
9985;BMP180;16737;50.932;6.780;2022-12-24T08:46:28;99875.00;;;15.20
9985;BMP180;16737;50.932;6.780;2022-12-24T08:48:54;99884.00;;;15.20
9985;BMP180;16737;50.932;6.780;2022-12-24T08:51:21;99889.00;;;15.20
9985;BMP180;16737;50.932;6.780;2022-12-24T08:53:48;99884.00;;;15.20
9985;BMP180;16737;50.932;6.780;2022-12-24T08:56:16;99869.00;;;15.20
9985;BMP180;16737;50.932;6.780;2022-12-24T08:58:44;99892.00;;;15.20
9985;BMP180;16737;50.932;6.780;2022-12-24T09:01:14;99893.00;;;15.20
9985;BMP180;16737;50.932;6.780;2022-12-24T09:03:41;99894.00;;;15.20
9985;BMP180;16737;50.932;6.780;2022-12-24T09:06:08;99891.00;;;15.20
9985;BMP180;16737;50.932;6.780;2022-12-24T09:08:36;99884.00;;;15.20
9985;BMP180;16737;50.932;6.780;2022-12-24T09:11:04;99881.00;;;15.30
9985;BMP180;16737;50.932;6.780;2022-12-24T09:13:34;99911.00;;;15.30
9985;BMP180;16737;50.932;6.780;2022-12-24T09:16:01;99876.00;;;15.30
9985;BMP180;16737;50.932;6.780;2022-12-24T09:18:28;99925.00;;;15.30
9985;BMP180;16737;50.932;6.780;2022-12-24T09:20:59;99928.00;;;15.30
9985;BMP180;16737;50.932;6.780;2022-12-24T09:23:26;99926.00;;;15.30
9985;BMP180;16737;50.932;6.780;2022-12-24T09:25:53;99933.00;;;15.30
9985;BMP180;16737;50.932;6.780;2022-12-24T09:28:21;99921.00;;;15.40
9985;BMP180;16737;50.932;6.780;2022-12-24T09:31:01;99939.00;;;15.40
9985;BMP180;16737;50.932;6.780;2022-12-24T09:33:31;99919.00;;;15.40
9985;BMP180;16737;50.932;6.780;2022-12-24T09:35:58;99955.00;;;15.40
9985;BMP180;16737;50.932;6.780;2022-12-24T09:38:25;99967.00;;;15.40
9985;BMP180;16737;50.932;6.780;2022-12-24T09:40:54;99979.00;;;15.40
9985;BMP180;16737;50.932;6.780;2022-12-24T09:43:24;99976.00;;;15.40
9985;BMP180;16737;50.932;6.780;2022-12-24T09:46:06;99959.00;;;15.40
9985;BMP180;16737;50.932;6.780;2022-12-24T09:48:41;99968.00;;;15.40
9985;BMP180;16737;50.932;6.780;2022-12-24T09:51:14;99954.00;;;15.10
9985;BMP180;16737;50.932;6.780;2022-12-24T09:53:52;99951.00;;;15.40
9985;BMP180;16737;50.932;6.780;2022-12-24T09:56:23;99965.00;;;15.40
9985;BMP180;16737;50.932;6.780;2022-12-24T09:58:57;99973.00;;;15.50
9985;BMP180;16737;50.932;6.780;2022-12-24T10:01:30;99954.00;;;15.30
9985;BMP180;16737;50.932;6.780;2022-12-24T10:04:00;99968.00;;;15.50
9985;BMP180;16737;50.932;6.780;2022-12-24T10:06:37;99991.00;;;15.50
9985;BMP180;16737;50.932;6.780;2022-12-24T10:09:17;99992.00;;;15.30
9985;BMP180;16737;50.932;6.780;2022-12-24T10:11:54;99989.00;;;15.50
9985;BMP180;16737;50.932;6.780;2022-12-24T10:14:41;99989.00;;;15.40
9985;BMP180;16737;50.932;6.780;2022-12-24T10:17:34;99984.00;;;15.40
9985;BMP180;16737;50.932;6.780;2022-12-24T10:20:41;99995.00;;;15.20
9985;BMP180;16737;50.932;6.780;2022-12-24T10:23:20;99983.00;;;15.40
9985;BMP180;16737;50.932;6.780;2022-12-24T10:25:58;99984.00;;;15.50
9985;BMP180;16737;50.932;6.780;2022-12-24T10:28:34;99985.00;;;15.50
9985;BMP180;16737;50.932;6.780;2022-12-24T10:31:08;99986.00;;;15.50
9985;BMP180;16737;50.932;6.780;2022-12-24T10:33:42;99932.00;;;15.50
9985;BMP180;16737;50.932;6.780;2022-12-24T10:36:16;99981.00;;;15.50
9985;BMP180;16737;50.932;6.780;2022-12-24T10:38:45;99986.00;;;15.50
9985;BMP180;16737;50.932;6.780;2022-12-24T10:41:13;99915.00;;;15.50
9985;BMP180;16737;50.932;6.780;2022-12-24T10:43:42;99947.00;;;15.50
9985;BMP180;16737;50.932;6.780;2022-12-24T10:46:17;99977.00;;;15.50
9985;BMP180;16737;50.932;6.780;2022-12-24T10:48:53;100001.00;;;15.60
9985;BMP180;16737;50.932;6.780;2022-12-24T10:51:31;99990.00;;;15.60
9985;BMP180;16737;50.932;6.780;2022-12-24T10:54:07;99984.00;;;15.60
9985;BMP180;16737;50.932;6.780;2022-12-24T10:56:43;99981.00;;;15.60
9985;BMP180;16737;50.932;6.780;2022-12-24T10:59:24;99987.00;;;15.60
9985;BMP180;16737;50.932;6.780;2022-12-24T11:01:53;99996.00;;;15.70
9985;BMP180;16737;50.932;6.780;2022-12-24T11:04:25;99983.00;;;15.70
9985;BMP180;16737;50.932;6.780;2022-12-24T11:06:55;99997.00;;;15.70
9985;BMP180;16737;50.932;6.780;2022-12-24T11:09:25;99991.00;;;15.70
9985;BMP180;16737;50.932;6.780;2022-12-24T11:11:57;100002.00;;;15.70
9985;BMP180;16737;50.932;6.780;2022-12-24T11:14:29;100002.00;;;15.70
9985;BMP180;16737;50.932;6.780;2022-12-24T11:17:00;99984.00;;;15.80
9985;BMP180;16737;50.932;6.780;2022-12-24T11:19:32;99984.00;;;15.80
9985;BMP180;16737;50.932;6.780;2022-12-24T11:22:06;99992.00;;;15.80
9985;BMP180;16737;50.932;6.780;2022-12-24T11:24:37;99988.00;;;15.80
9985;BMP180;16737;50.932;6.780;2022-12-24T11:27:37;99986.00;;;15.90
9985;BMP180;16737;50.932;6.780;2022-12-24T11:30:26;99991.00;;;15.90
9985;BMP180;16737;50.932;6.780;2022-12-24T11:33:18;99991.00;;;15.90
9985;BMP180;16737;50.932;6.780;2022-12-24T11:35:52;100001.00;;;16.00
9985;BMP180;16737;50.932;6.780;2022-12-24T11:38:23;99992.00;;;16.00
9985;BMP180;16737;50.932;6.780;2022-12-24T11:41:06;99999.00;;;16.00
9985;BMP180;16737;50.932;6.780;2022-12-24T11:43:43;100005.00;;;16.00
9985;BMP180;16737;50.932;6.780;2022-12-24T11:46:15;99995.00;;;16.10
9985;BMP180;16737;50.932;6.780;2022-12-24T11:48:44;99999.00;;;16.10
9985;BMP180;16737;50.932;6.780;2022-12-24T11:51:24;99998.00;;;16.10
9985;BMP180;16737;50.932;6.780;2022-12-24T11:54:03;100006.00;;;16.10
9985;BMP180;16737;50.932;6.780;2022-12-24T11:56:37;100000.00;;;16.20
9985;BMP180;16737;50.932;6.780;2022-12-24T11:59:16;99996.00;;;16.20
9985;BMP180;16737;50.932;6.780;2022-12-24T12:01:53;100006.00;;;16.20
9985;BMP180;16737;50.932;6.780;2022-12-24T12:04:27;99992.00;;;16.30
9985;BMP180;16737;50.932;6.780;2022-12-24T12:07:00;99986.00;;;16.30
9985;BMP180;16737;50.932;6.780;2022-12-24T12:09:33;99993.00;;;16.30
9985;BMP180;16737;50.932;6.780;2022-12-24T12:12:08;99996.00;;;16.30
9985;BMP180;16737;50.932;6.780;2022-12-24T12:14:47;99975.00;;;16.30
9985;BMP180;16737;50.932;6.780;2022-12-24T12:17:29;99989.00;;;16.30
9985;BMP180;16737;50.932;6.780;2022-12-24T12:20:03;100006.00;;;16.20
9985;BMP180;16737;50.932;6.780;2022-12-24T12:22:41;100013.00;;;16.40
9985;BMP180;16737;50.932;6.780;2022-12-24T12:25:25;100018.00;;;16.40
9985;BMP180;16737;50.932;6.780;2022-12-24T12:27:55;100021.00;;;16.50
9985;BMP180;16737;50.932;6.780;2022-12-24T12:30:25;100016.00;;;16.50
9985;BMP180;16737;50.932;6.780;2022-12-24T12:33:00;100029.00;;;16.50
9985;BMP180;16737;50.932;6.780;2022-12-24T12:35:33;99988.00;;;16.50
9985;BMP180;16737;50.932;6.780;2022-12-24T12:38:05;100029.00;;;16.50
9985;BMP180;16737;50.932;6.780;2022-12-24T12:40:59;100041.00;;;16.50
9985;BMP180;16737;50.932;6.780;2022-12-24T12:46:39;100039.00;;;16.50
9985;BMP180;16737;50.932;6.780;2022-12-24T12:49:27;99992.00;;;16.50
9985;BMP180;16737;50.932;6.780;2022-12-24T12:52:04;100028.00;;;16.50
9985;BMP180;16737;50.932;6.780;2022-12-24T12:55:05;100008.00;;;16.20
9985;BMP180;16737;50.932;6.780;2022-12-24T12:57:43;100026.00;;;16.50
9985;BMP180;16737;50.932;6.780;2022-12-24T13:00:16;100030.00;;;16.30
9985;BMP180;16737;50.932;6.780;2022-12-24T13:02:59;100026.00;;;16.40
9985;BMP180;16737;50.932;6.780;2022-12-24T13:06:13;100017.00;;;16.50
9985;BMP180;16737;50.932;6.780;2022-12-24T13:12:43;100017.00;;;16.50
9985;BMP180;16737;50.932;6.780;2022-12-24T13:15:42;100027.00;;;16.40
9985;BMP180;16737;50.932;6.780;2022-12-24T13:18:42;100027.00;;;16.40
9985;BMP180;16737;50.932;6.780;2022-12-24T13:21:16;100041.00;;;16.40
9985;BMP180;16737;50.932;6.780;2022-12-24T13:23:43;100037.00;;;16.40
9985;BMP180;16737;50.932;6.780;2022-12-24T13:26:12;100045.00;;;16.40
9985;BMP180;16737;50.932;6.780;2022-12-24T13:28:42;100039.00;;;16.30
9985;BMP180;16737;50.932;6.780;2022-12-24T13:31:28;100042.00;;;16.20
9985;BMP180;16737;50.932;6.780;2022-12-24T13:33:58;100049.00;;;16.20
9985;BMP180;16737;50.932;6.780;2022-12-24T13:37:15;100034.00;;;16.20
9985;BMP180;16737;50.932;6.780;2022-12-24T13:40:16;100044.00;;;16.10
9985;BMP180;16737;50.932;6.780;2022-12-24T13:42:51;100050.00;;;16.10
9985;BMP180;16737;50.932;6.780;2022-12-24T13:45:51;100043.00;;;16.10
9985;BMP180;16737;50.932;6.780;2022-12-24T13:48:28;100055.00;;;16.10
9985;BMP180;16737;50.932;6.780;2022-12-24T13:50:59;100053.00;;;16.10
9985;BMP180;16737;50.932;6.780;2022-12-24T13:53:31;100051.00;;;16.00
9985;BMP180;16737;50.932;6.780;2022-12-24T13:56:06;100050.00;;;16.00
9985;BMP180;16737;50.932;6.780;2022-12-24T13:58:36;100059.00;;;16.00
9985;BMP180;16737;50.932;6.780;2022-12-24T14:01:10;100059.00;;;16.00
9985;BMP180;16737;50.932;6.780;2022-12-24T14:03:44;100073.00;;;16.00
9985;BMP180;16737;50.932;6.780;2022-12-24T14:06:22;100084.00;;;16.00
9985;BMP180;16737;50.932;6.780;2022-12-24T14:08:55;100081.00;;;15.90
9985;BMP180;16737;50.932;6.780;2022-12-24T14:11:25;100066.00;;;15.90
9985;BMP180;16737;50.932;6.780;2022-12-24T14:14:11;100042.00;;;15.90
9985;BMP180;16737;50.932;6.780;2022-12-24T14:16:56;100058.00;;;15.90
9985;BMP180;16737;50.932;6.780;2022-12-24T14:19:28;100066.00;;;15.90
9985;BMP180;16737;50.932;6.780;2022-12-24T14:22:02;100051.00;;;15.80
9985;BMP180;16737;50.932;6.780;2022-12-24T14:24:34;100055.00;;;15.80
9985;BMP180;16737;50.932;6.780;2022-12-24T14:27:14;100057.00;;;15.80
9985;BMP180;16737;50.932;6.780;2022-12-24T14:29:49;100066.00;;;15.80
9985;BMP180;16737;50.932;6.780;2022-12-24T14:32:19;100064.00;;;15.80
9985;BMP180;16737;50.932;6.780;2022-12-24T14:34:46;100067.00;;;15.80
9985;BMP180;16737;50.932;6.780;2022-12-24T14:37:13;100062.00;;;15.80
9985;BMP180;16737;50.932;6.780;2022-12-24T14:39:45;100080.00;;;15.80
9985;BMP180;16737;50.932;6.780;2022-12-24T14:42:31;100087.00;;;15.80
9985;BMP180;16737;50.932;6.780;2022-12-24T14:45:14;100084.00;;;15.80
9985;BMP180;16737;50.932;6.780;2022-12-24T14:47:50;100094.00;;;15.80
9985;BMP180;16737;50.932;6.780;2022-12-24T14:50:47;100087.00;;;15.80
9985;BMP180;16737;50.932;6.780;2022-12-24T14:53:30;100091.00;;;15.80
9985;BMP180;16737;50.932;6.780;2022-12-24T14:56:08;100093.00;;;15.80